Time;durP1;ratioP1;P1;durP2;ratioP2;P2;SDS_P1;SDS_P2;PMS_P1;PMS_P2;Temp;Humidity;BMP_temperature;BMP_pressure;BME280_temperature;BME280_humidity;BME280_pressure;Samples;Min_cycle;Max_cycle;Signal;HPM_P1;HPM_P2
2021/06/16 00:02:20;;;;;;;;;22.00;20.75;;;;;26.83;43.29;101062.34;5102921;27;46666;-50
2021/06/16 00:04:45;;;;;;;;;19.25;18.00;;;;;26.76;43.28;101064.69;5121588;27;45224;-50
2021/06/16 00:07:11;;;;;;;;;22.75;20.75;;;;;26.74;42.78;101058.53;5121686;27;45269;-48
2021/06/16 00:09:37;;;;;;;;;19.75;17.00;;;;;26.72;42.81;101057.78;5102783;27;45332;-48
2021/06/16 00:12:02;;;;;;;;;21.00;20.25;;;;;26.70;43.68;101046.25;5101628;27;46079;-50
2021/06/16 00:14:28;;;;;;;;;25.25;19.75;;;;;26.68;42.98;101051.78;5100866;27;45393;-48
2021/06/16 00:16:54;;;;;;;;;19.50;18.50;;;;;26.65;43.13;101043.06;5101080;27;46470;-49
2021/06/16 00:19:19;;;;;;;;;24.25;22.25;;;;;26.65;43.59;101043.06;5100601;27;45384;-47
2021/06/16 00:21:45;;;;;;;;;20.00;19.75;;;;;26.65;43.76;101043.06;5100591;27;46163;-46
2021/06/16 00:24:11;;;;;;;;;21.00;20.00;;;;;26.65;43.06;101043.06;5100737;27;45397;-50
2021/06/16 00:26:36;;;;;;;;;21.00;20.50;;;;;26.63;43.24;101037.81;5100533;27;45267;-49
2021/06/16 00:29:03;;;;;;;;;20.25;19.50;;;;;26.59;43.61;101039.88;5100726;27;45526;-47
2021/06/16 00:31:28;;;;;;;;;21.75;20.25;;;;;26.59;43.26;101050.66;5100550;27;45231;-47
2021/06/16 00:33:54;;;;;;;;;18.50;18.50;;;;;26.57;43.84;101040.97;5100374;27;45168;-50
2021/06/16 00:36:20;;;;;;;;;17.50;17.50;;;;;26.53;43.70;101031.41;5100764;27;45467;-47
2021/06/16 00:38:45;;;;;;;;;23.75;22.25;;;;;26.49;44.11;101025.41;5100585;27;45227;-51
2021/06/16 00:41:11;;;;;;;;;21.25;21.00;;;;;26.50;44.31;101034.31;5100209;27;45428;-47
2021/06/16 00:43:37;;;;;;;;;20.25;20.25;;;;;26.46;44.58;101028.31;5100398;27;45286;-46
2021/06/16 00:46:02;;;;;;;;;22.25;21.75;;;;;26.46;43.87;101035.56;5100434;27;45239;-48
2021/06/16 00:48:28;;;;;;;;;23.50;20.50;;;;;26.39;44.20;101032.44;5100481;27;45603;-47
2021/06/16 00:50:53;;;;;;;;;19.50;19.50;;;;;26.31;44.67;101024.13;5108073;27;46161;-47
2021/06/16 00:53:19;;;;;;;;;17.50;17.50;;;;;26.23;44.96;101025.56;5124697;27;45284;-46
2021/06/16 00:55:44;;;;;;;;;19.50;18.75;;;;;26.23;44.98;101030.94;5124645;27;45501;-49
2021/06/16 00:58:14;;;;;;;;;20.25;18.75;;;;;26.23;44.39;101020.16;5124659;27;45445;-46
2021/06/16 01:00:42;;;;;;;;;20.50;17.25;;;;;26.24;44.81;101019.19;5105982;27;45456;-47
2021/06/16 01:03:16;;;;;;;;;24.00;20.50;;;;;26.22;44.92;101013.06;5124451;27;45361;-50
2021/06/16 01:05:49;;;;;;;;;18.25;17.75;;;;;26.21;44.52;101014.06;5124557;27;45203;-46
2021/06/16 01:08:22;;;;;;;;;22.50;19.50;;;;;26.19;44.97;101016.00;5105908;27;45584;-46
2021/06/16 01:10:49;;;;;;;;;20.50;20.50;;;;;26.19;44.69;101012.41;5114968;27;46089;-49
2021/06/16 01:13:44;;;;;;;;;18.75;18.75;;;;;26.15;44.52;101009.13;5103701;27;45398;-48
2021/06/16 01:16:32;;;;;;;;;23.50;18.50;;;;;26.14;44.77;101007.41;5086671;27;45265;-48
2021/06/16 01:19:05;;;;;;;;;20.75;19.00;;;;;26.11;44.83;101007.63;5103633;27;45348;-47
2021/06/16 01:21:33;;;;;;;;;21.75;20.50;;;;;26.06;44.79;100999.91;5103460;27;46386;-50
2021/06/16 01:24:13;;;;;;;;;22.00;22.00;;;;;26.03;44.84;101000.09;5103591;27;45464;-48
2021/06/16 01:26:44;;;;;;;;;21.50;21.50;;;;;25.99;45.50;100992.38;5103527;27;45531;-46
2021/06/16 01:29:14;;;;;;;;;23.25;22.25;;;;;26.00;45.31;100991.41;5103458;27;45472;-46
2021/06/16 01:31:41;;;;;;;;;21.50;21.50;;;;;25.96;44.97;100988.94;5103382;27;45319;-48
2021/06/16 01:34:09;;;;;;;;;27.25;23.00;;;;;25.93;45.71;100991.84;5103352;27;45197;-45
2021/06/16 01:36:37;;;;;;;;;23.50;19.00;;;;;25.89;45.45;100984.16;5103355;27;45301;-46
2021/06/16 01:39:07;;;;;;;;;24.75;23.25;;;;;25.88;45.37;100991.34;5103608;27;45299;-49
2021/06/16 01:41:32;;;;;;;;;20.00;19.00;;;;;25.86;45.99;100992.44;5110525;27;45322;-47
2021/06/16 01:44:00;;;;;;;;;20.50;19.50;;;;;25.83;45.52;100990.84;5105407;27;45326;-47
2021/06/16 01:46:26;;;;;;;;;22.50;21.50;;;;;25.80;45.34;100983.84;5124113;27;45345;-47
2021/06/16 01:48:52;;;;;;;;;23.25;21.00;;;;;25.78;45.50;100984.94;5105317;27;45355;-47
2021/06/16 01:51:20;;;;;;;;;22.25;20.75;;;;;25.75;46.00;100979.81;5123892;27;46181;-46
2021/06/16 01:53:47;;;;;;;;;23.75;20.75;;;;;25.72;45.75;100983.59;5123501;27;45189;-48
2021/06/16 01:56:14;;;;;;;;;20.25;20.25;;;;;25.67;45.80;100976.81;5123670;27;45402;-49
2021/06/16 01:58:43;;;;;;;;;22.25;20.75;;;;;25.65;45.77;100985.00;5123413;27;45317;-46
2021/06/16 02:01:09;;;;;;;;;22.75;21.00;;;;;25.58;46.05;100972.97;5122350;27;45652;-48
2021/06/16 02:03:35;;;;;;;;;22.00;18.00;;;;;25.56;46.18;100975.78;5104930;27;45273;-50
2021/06/16 02:06:01;;;;;;;;;26.75;24.00;;;;;25.53;45.90;100976.00;5123879;27;45269;-46
2021/06/16 02:08:29;;;;;;;;;23.00;23.00;;;;;25.50;45.65;100976.22;5123622;27;45240;-47
2021/06/16 02:10:56;;;;;;;;;26.00;25.00;;;;;25.44;46.19;100969.47;5113176;27;47061;-47
2021/06/16 02:13:28;;;;;;;;;23.25;22.50;;;;;25.45;46.30;100967.66;5102617;27;45326;-50
2021/06/16 02:16:04;;;;;;;;;22.50;20.75;;;;;25.36;46.30;100965.59;5103051;27;45326;-46
2021/06/16 02:18:48;;;;;;;;;19.75;19.75;;;;;25.36;46.36;100962.91;5102548;27;45343;-48
2021/06/16 02:21:14;;;;;;;;;21.50;20.75;;;;;25.33;45.73;100958.59;5102532;27;46011;-46
2021/06/16 02:23:42;;;;;;;;;20.00;19.50;;;;;25.30;46.40;100950.78;5102696;27;45385;-46
2021/06/16 02:26:11;;;;;;;;;19.00;19.00;;;;;25.31;46.34;100956.03;5067892;27;45393;-46
2021/06/16 02:28:36;;;;;;;;;19.00;17.00;;;;;25.28;46.21;100958.09;5092946;27;46176;-47
2021/06/16 02:31:03;;;;;;;;;21.25;21.00;;;;;25.27;46.27;100954.53;5107477;27;45417;-47
2021/06/16 02:33:29;;;;;;;;;16.75;16.75;;;;;25.25;46.08;100950.25;5102632;27;45316;-50
2021/06/16 02:35:54;;;;;;;;;19.00;19.00;;;;;25.22;46.54;100958.53;5102466;27;45276;-48
2021/06/16 02:38:22;;;;;;;;;21.00;19.75;;;;;25.20;46.65;100950.56;5102616;27;45272;-46
2021/06/16 02:40:48;;;;;;;;;19.75;19.75;;;;;25.19;46.33;100945.31;5102046;27;46133;-47
2021/06/16 02:43:17;;;;;;;;;21.50;21.25;;;;;25.16;46.34;100941.03;5102326;27;45266;-50
2021/06/16 02:45:44;;;;;;;;;19.75;18.75;;;;;25.15;47.08;100939.31;5084231;27;45331;-48
2021/06/16 02:48:12;;;;;;;;;20.75;19.75;;;;;25.12;46.58;100939.53;5102373;27;45391;-46
2021/06/16 02:50:40;;;;;;;;;19.75;19.75;;;;;25.12;46.62;100936.84;5105101;27;45339;-47
2021/06/16 02:53:16;;;;;;;;;21.25;18.25;;;;;25.10;46.99;100936.09;5122992;27;45326;-49
2021/06/16 02:55:43;;;;;;;;;22.25;19.50;;;;;25.08;46.93;100935.34;5122565;27;45251;-47
2021/06/16 02:58:10;;;;;;;;;19.25;18.00;;;;;25.04;46.79;100931.16;5104142;27;45333;-47
2021/06/16 03:00:37;;;;;;;;;24.00;19.25;;;;;25.05;46.89;100935.56;5122474;27;46153;-51
2021/06/16 03:03:06;;;;;;;;;22.50;19.75;;;;;25.02;47.06;100931.28;5122765;27;45321;-48
2021/06/16 03:05:32;;;;;;;;;20.25;20.25;;;;;24.99;47.12;100929.66;5122687;27;45413;-47
2021/06/16 03:07:59;;;;;;;;;19.75;19.25;;;;;24.98;47.22;100932.44;5122688;27;45307;-48
2021/06/16 03:10:28;;;;;;;;;18.00;17.00;;;;;24.97;47.24;100933.44;5116668;27;45310;-48
2021/06/16 03:12:56;;;;;;;;;20.25;19.50;;;;;24.96;47.18;100937.09;5101549;27;45267;-47
2021/06/16 03:15:22;;;;;;;;;20.25;18.50;;;;;24.92;47.30;100927.53;5102023;27;45401;-47
2021/06/16 03:17:49;;;;;;;;;22.00;20.25;;;;;24.93;47.05;100924.75;5101713;27;45491;-46
2021/06/16 03:20:20;;;;;;;;;22.25;20.00;;;;;24.92;47.18;100924.84;5101629;27;45406;-45
2021/06/16 03:22:47;;;;;;;;;21.25;19.00;;;;;24.91;47.19;100923.97;5101744;27;45330;-46
2021/06/16 03:25:14;;;;;;;;;20.75;20.00;;;;;24.88;47.33;100928.72;5101717;27;45370;-48
2021/06/16 03:27:40;;;;;;;;;21.25;19.50;;;;;24.85;47.58;100927.09;5101550;27;45299;-50
2021/06/16 03:30:07;;;;;;;;;21.00;19.00;;;;;24.84;47.68;100933.44;5101628;27;45402;-50
2021/06/16 03:32:35;;;;;;;;;21.75;20.75;;;;;24.81;47.57;100931.00;5101523;27;45258;-49
2021/06/16 03:35:01;;;;;;;;;22.00;19.75;;;;;24.79;47.38;100930.22;5101746;27;45271;-47
2021/06/16 03:37:27;;;;;;;;;18.00;13.00;;;;;24.76;47.51;100925.09;5101463;27;45406;-47
2021/06/16 03:39:53;;;;;;;;;21.50;19.50;;;;;24.74;47.74;100924.31;5101312;27;46186;-46
2021/06/16 03:42:20;;;;;;;;;23.00;22.00;;;;;24.72;47.77;100929.81;5082818;27;45446;-46
2021/06/16 03:44:47;;;;;;;;;20.00;20.00;;;;;24.71;47.76;100925.41;5100227;27;45298;-47
2021/06/16 03:47:15;;;;;;;;;24.00;22.75;;;;;24.70;47.94;100933.59;5101313;27;45628;-48
2021/06/16 03:49:43;;;;;;;;;22.50;21.25;;;;;24.70;48.14;100929.06;5100013;27;46142;-50
2021/06/16 03:52:09;;;;;;;;;23.00;22.00;;;;;24.68;48.12;100928.31;5117174;27;45555;-46
2021/06/16 03:54:36;;;;;;;;;22.00;22.00;;;;;24.69;47.72;100926.47;5103283;27;45453;-48
2021/06/16 03:57:02;;;;;;;;;25.50;24.00;;;;;24.64;48.50;100921.41;5121573;27;45410;-48
2021/06/16 03:59:28;;;;;;;;;23.25;23.00;;;;;24.66;48.45;100923.03;5121700;27;46328;-48
2021/06/16 04:01:54;;;;;;;;;26.75;23.50;;;;;24.61;48.65;100914.41;5121517;27;45289;-47
2021/06/16 04:04:20;;;;;;;;;22.25;20.50;;;;;24.67;48.87;100926.59;5121824;27;45306;-49
2021/06/16 04:06:46;;;;;;;;;21.75;21.75;;;;;24.66;48.60;100923.03;5121824;27;45303;-46
2021/06/16 04:09:14;;;;;;;;;23.75;22.75;;;;;24.66;48.74;100922.19;5121570;27;46310;-47
2021/06/16 04:11:41;;;;;;;;;27.00;22.50;;;;;24.65;48.84;100915.09;5105427;27;45393;-47
2021/06/16 04:14:07;;;;;;;;;22.50;22.50;;;;;24.65;48.92;100920.47;5101089;27;45434;-49
2021/06/16 04:16:33;;;;;;;;;30.75;28.75;;;;;24.65;48.82;100928.53;5100980;27;45239;-46
2021/06/16 04:18:59;;;;;;;;;38.75;33.75;;;;;24.64;48.93;100925.00;5100844;27;45255;-47
2021/06/16 04:21:25;;;;;;;;;28.75;27.25;;;;;24.63;49.24;100928.59;5082412;27;45616;-50
2021/06/16 04:23:51;;;;;;;;;24.00;24.00;;;;;24.62;49.37;100923.34;5100406;27;45173;-47
2021/06/16 04:26:18;;;;;;;;;26.25;24.50;;;;;24.63;48.94;100928.59;5099281;27;45275;-47
2021/06/16 04:28:45;;;;;;;;;24.25;24.25;;;;;24.65;48.86;100926.72;5100714;27;45445;-46
2021/06/16 04:31:11;;;;;;;;;24.00;23.75;;;;;24.62;48.93;100918.81;5100622;27;45307;-48
2021/06/16 04:33:36;;;;;;;;;27.00;24.00;;;;;24.64;48.56;100919.63;5100838;27;45272;-46
2021/06/16 04:36:04;;;;;;;;;21.75;21.75;;;;;24.63;48.56;100920.56;5100710;27;45556;-48
2021/06/16 04:38:30;;;;;;;;;22.75;21.50;;;;;24.59;48.93;100905.63;5082519;27;47123;-48
2021/06/16 04:40:55;;;;;;;;;22.75;21.50;;;;;24.63;48.69;100907.13;5100249;27;45263;-49
2021/06/16 04:43:21;;;;;;;;;26.75;24.50;;;;;24.65;49.04;100912.41;5100733;27;45263;-46
2021/06/16 04:45:46;;;;;;;;;24.50;23.50;;;;;24.65;48.49;100904.34;5100456;27;45219;-48
2021/06/16 04:48:12;;;;;;;;;24.25;24.25;;;;;24.65;48.62;100907.03;5082117;27;45376;-46
2021/06/16 04:50:37;;;;;;;;;28.25;22.50;;;;;24.66;48.73;100908.75;5103238;27;45214;-48
2021/06/16 04:53:03;;;;;;;;;29.00;23.25;;;;;24.69;48.64;100905.00;5121367;27;45285;-46
2021/06/16 04:55:28;;;;;;;;;22.25;21.50;;;;;24.67;48.46;100899.72;5120655;27;45329;-50
2021/06/16 04:57:54;;;;;;;;;22.50;21.25;;;;;24.70;48.35;100902.19;5102414;27;46043;-47
2021/06/16 05:00:21;;;;;;;;;24.75;20.75;;;;;24.70;48.58;100898.66;5120733;27;45321;-47
2021/06/16 05:02:47;;;;;;;;;25.50;24.00;;;;;24.73;48.88;100893.03;5121310;27;45287;-46
2021/06/16 05:05:12;;;;;;;;;26.25;26.25;;;;;24.73;48.95;100891.25;5120860;27;45304;-45
2021/06/16 05:07:38;;;;;;;;;25.25;23.00;;;;;24.72;48.87;100892.19;5102476;27;46316;-46
2021/06/16 05:10:05;;;;;;;;;24.25;24.25;;;;;24.75;49.15;100899.19;5099277;27;45172;-46
2021/06/16 05:12:31;;;;;;;;;25.25;22.00;;;;;24.77;49.28;100897.25;5100237;27;45372;-49
2021/06/16 05:14:56;;;;;;;;;26.50;25.75;;;;;24.77;49.52;100891.88;5099970;27;45279;-48
2021/06/16 05:17:22;;;;;;;;;23.75;23.50;;;;;24.77;49.30;100886.50;5081750;27;45277;-46
2021/06/16 05:19:55;;;;;;;;;23.00;23.00;;;;;24.77;48.76;100890.03;5103050;27;45185;-46
2021/06/16 05:22:20;;;;;;;;;24.50;23.00;;;;;24.78;49.13;100896.25;5091369;27;45229;-46
2021/06/16 05:24:46;;;;;;;;;26.25;25.00;;;;;24.75;49.12;100885.75;5099386;27;45285;-46
2021/06/16 05:27:15;;;;;;;;;26.75;26.25;;;;;24.80;48.57;100887.16;5099941;27;45284;-47
2021/06/16 05:29:40;;;;;;;;;25.75;25.00;;;;;24.82;48.80;100885.19;5099760;27;45294;-46
2021/06/16 05:32:06;;;;;;;;;28.00;24.25;;;;;24.85;49.06;100889.47;5100146;27;45340;-50
2021/06/16 05:34:31;;;;;;;;;25.50;22.75;;;;;24.86;48.97;100895.72;5099795;27;45322;-47
2021/06/16 05:36:57;;;;;;;;;24.25;24.25;;;;;24.87;48.81;100887.56;5103338;27;45245;-48
2021/06/16 05:39:22;;;;;;;;;25.00;22.25;;;;;24.89;48.52;100888.31;5103130;27;45261;-50
2021/06/16 05:41:49;;;;;;;;;25.00;24.75;;;;;24.91;48.44;100894.41;5103517;27;45350;-49
2021/06/16 05:44:14;;;;;;;;;22.75;22.25;;;;;24.94;48.32;100893.34;5103377;27;45239;-50
2021/06/16 05:46:40;;;;;;;;;24.75;24.75;;;;;24.96;48.31;100892.25;5103240;27;45794;-50
2021/06/16 05:49:05;;;;;;;;;23.00;21.50;;;;;24.97;48.33;100891.28;5103282;27;45299;-50
2021/06/16 05:51:31;;;;;;;;;23.50;23.50;;;;;25.01;48.52;100891.06;5113868;27;45530;-49
2021/06/16 05:53:56;;;;;;;;;25.25;25.25;;;;;25.02;48.24;100879.34;5123427;27;45488;-47
2021/06/16 05:56:21;;;;;;;;;27.50;23.75;;;;;25.03;48.34;100890.00;5123766;27;45260;-50
2021/06/16 05:58:47;;;;;;;;;24.00;22.25;;;;;25.05;48.00;100890.72;5123655;27;45231;-50
2021/06/16 06:01:12;;;;;;;;;31.50;27.50;;;;;25.08;48.10;100889.63;5119280;27;45224;-48
2021/06/16 06:03:41;;;;;;;;;23.25;22.00;;;;;25.06;48.21;100878.16;5107591;27;45462;-50
2021/06/16 06:06:07;;;;;;;;;28.00;26.50;;;;;25.12;48.08;100877.72;5122803;27;46196;-49
2021/06/16 06:08:32;;;;;;;;;27.00;26.50;;;;;25.10;47.83;100883.16;5102396;27;45379;-47
2021/06/16 06:10:57;;;;;;;;;24.75;24.75;;;;;25.15;47.74;100886.38;5105631;27;45717;-50
2021/06/16 06:13:23;;;;;;;;;27.00;24.25;;;;;25.19;48.26;100886.16;5102379;27;45544;-49
2021/06/16 06:15:49;;;;;;;;;28.50;28.50;;;;;25.19;47.93;100880.78;5102366;27;46108;-48
2021/06/16 06:18:14;;;;;;;;;25.75;23.75;;;;;25.26;47.84;100887.44;5102215;27;45307;-46
2021/06/16 06:20:39;;;;;;;;;28.00;25.75;;;;;25.25;47.49;100885.72;5102484;27;45369;-46
2021/06/16 06:23:05;;;;;;;;;22.75;22.75;;;;;25.25;47.82;100886.56;5084264;27;45482;-46
2021/06/16 06:25:30;;;;;;;;;24.50;22.00;;;;;25.27;48.09;100890.00;5102127;27;45286;-46
2021/06/16 06:27:56;;;;;;;;;25.75;24.50;;;;;25.29;47.79;100888.03;5102187;27;45327;-45
2021/06/16 06:30:21;;;;;;;;;24.75;23.25;;;;;25.31;48.14;100878.03;5102391;27;45374;-44
2021/06/16 06:32:46;;;;;;;;;25.25;24.00;;;;;25.38;48.04;100883.84;5102240;27;45334;-44
2021/06/16 06:35:12;;;;;;;;;27.25;24.50;;;;;25.41;47.39;100880.94;5102102;27;45210;-50
2021/06/16 06:37:38;;;;;;;;;20.25;19.75;;;;;25.44;47.88;100882.53;5101985;27;45707;-46
2021/06/16 06:40:04;;;;;;;;;23.50;23.00;;;;;25.45;47.63;100874.34;5083654;27;45473;-50
2021/06/16 06:42:30;;;;;;;;;22.50;22.00;;;;;25.49;47.36;100880.38;5101973;27;45433;-44
2021/06/16 06:44:56;;;;;;;;;21.50;21.50;;;;;25.51;47.67;100877.56;5101419;27;45457;-43
2021/06/16 06:47:25;;;;;;;;;25.50;22.00;;;;;25.52;47.33;100869.38;5099938;27;45435;-43
2021/06/16 06:49:51;;;;;;;;;24.50;22.25;;;;;25.56;47.22;100873.56;5083110;27;45538;-44
2021/06/16 06:52:16;;;;;;;;;23.75;21.50;;;;;25.57;47.00;100864.50;5117396;27;45634;-45
2021/06/16 06:54:41;;;;;;;;;20.00;19.00;;;;;25.63;47.14;100868.56;5121872;27;45360;-45
2021/06/16 06:57:07;;;;;;;;;22.25;21.00;;;;;25.68;47.38;100865.53;5103727;27;45351;-46
2021/06/16 06:59:34;;;;;;;;;21.50;20.25;;;;;25.73;46.94;100871.41;5121253;27;45306;-45
2021/06/16 07:01:59;;;;;;;;;21.25;19.75;;;;;25.74;47.12;100867.75;5122136;27;46376;-47
2021/06/16 07:04:26;;;;;;;;;25.00;22.00;;;;;25.76;46.85;100861.28;5122056;27;46212;-50
2021/06/16 07:06:51;;;;;;;;;23.25;22.50;;;;;25.77;47.70;100859.44;5122332;27;45293;-48
2021/06/16 07:09:17;;;;;;;;;25.50;21.75;;;;;25.83;47.26;100855.41;5121951;27;45429;-48
2021/06/16 07:11:42;;;;;;;;;21.00;18.00;;;;;25.83;47.04;100845.50;5105437;27;45298;-49
2021/06/16 07:14:07;;;;;;;;;17.25;17.00;;;;;25.85;46.90;100846.25;5101237;27;45606;-47
2021/06/16 07:16:33;;;;;;;;;17.75;17.75;;;;;25.89;46.95;100853.09;5101517;27;45291;-47
2021/06/16 07:18:58;;;;;;;;;21.25;19.25;;;;;25.95;47.10;100852.63;5101505;27;45237;-48
2021/06/16 07:21:23;;;;;;;;;22.25;21.00;;;;;26.00;47.57;100844.22;5082214;27;45298;-47
2021/06/16 07:23:49;;;;;;;;;21.00;20.50;;;;;26.07;47.17;100850.00;5099217;27;45919;-46
2021/06/16 07:26:16;;;;;;;;;21.00;18.50;;;;;26.09;46.49;100843.50;5099065;27;45712;-48
2021/06/16 07:28:41;;;;;;;;;17.50;17.00;;;;;26.12;46.18;100847.78;5101818;27;45486;-54
2021/06/16 07:31:07;;;;;;;;;16.00;16.00;;;;;26.15;46.61;100847.56;5101498;27;45608;-47
2021/06/16 07:33:34;;;;;;;;;19.75;18.00;;;;;26.21;46.06;100844.41;5083491;27;46251;-50
2021/06/16 07:36:00;;;;;;;;;21.25;18.00;;;;;26.28;45.82;100850.16;5101322;27;45354;-49
2021/06/16 07:38:25;;;;;;;;;18.00;16.75;;;;;26.28;46.28;100847.44;5100425;27;45333;-46
2021/06/16 07:40:51;;;;;;;;;19.00;18.00;;;;;26.35;45.69;100839.72;5083005;27;45519;-48
2021/06/16 07:43:16;;;;;;;;;11.25;10.00;;;;;26.40;45.33;100846.47;5101527;27;46125;-48
2021/06/16 07:45:42;;;;;;;;;20.00;17.50;;;;;26.46;45.17;100845.13;5101299;27;45449;-49
2021/06/16 07:48:08;;;;;;;;;19.50;17.50;;;;;26.53;45.07;100840.13;5101363;27;45260;-49
2021/06/16 07:50:36;;;;;;;;;17.50;16.00;;;;;26.60;44.71;100835.94;5103359;27;45251;-50
2021/06/16 07:53:06;;;;;;;;;17.50;17.50;;;;;26.64;44.99;100823.94;5121721;27;46163;-52
2021/06/16 07:55:33;;;;;;;;;16.75;16.50;;;;;26.69;45.10;100831.63;5102991;27;45366;-49
2021/06/16 07:57:59;;;;;;;;;17.00;17.00;;;;;26.74;44.14;100833.03;5121585;27;45243;-50
2021/06/16 08:00:24;;;;;;;;;16.75;15.50;;;;;26.74;44.63;100824.06;5120732;27;45169;-51
2021/06/16 08:02:50;;;;;;;;;17.25;17.00;;;;;26.82;44.13;100818.91;5121638;27;46232;-51
2021/06/16 08:05:15;;;;;;;;;20.50;17.75;;;;;26.88;43.77;100826.50;5121445;27;45209;-50
2021/06/16 08:07:44;;;;;;;;;15.25;14.25;;;;;26.97;44.04;100832.09;5121934;27;45341;-52
2021/06/16 08:10:11;;;;;;;;;15.50;14.50;;;;;26.98;44.16;100826.59;5117901;27;45592;-48
2021/06/16 08:12:36;;;;;;;;;16.75;15.50;;;;;27.04;44.05;100811.75;5100764;27;45392;-52
2021/06/16 08:15:04;;;;;;;;;16.00;16.00;;;;;27.10;44.03;100819.31;5082289;27;45388;-52
2021/06/16 08:17:29;;;;;;;;;21.50;17.00;;;;;27.17;44.04;100808.88;5082626;27;45213;-53
2021/06/16 08:19:54;;;;;;;;;17.75;15.75;;;;;27.19;43.30;100815.84;5100402;27;45425;-53
2021/06/16 08:22:20;;;;;;;;;15.50;14.50;;;;;27.27;43.67;100806.25;5082411;27;47002;-53
2021/06/16 08:24:45;;;;;;;;;17.50;16.50;;;;;27.32;43.81;100814.81;5100435;27;45269;-53
2021/06/16 08:27:11;;;;;;;;;18.75;17.50;;;;;27.37;43.75;100804.50;5100815;27;45233;-52
2021/06/16 08:29:38;;;;;;;;;15.75;14.50;;;;;27.48;43.40;100809.88;5100631;27;45479;-51
2021/06/16 08:32:04;;;;;;;;;20.50;18.50;;;;;27.52;43.11;100808.66;5100621;27;46162;-50
2021/06/16 08:34:30;;;;;;;;;46.75;38.75;;;;;27.60;42.75;100813.38;5100248;27;45362;-51
2021/06/16 08:36:55;;;;;;;;;21.75;19.25;;;;;27.66;42.11;100795.78;5100790;27;45454;-51
2021/06/16 08:39:21;;;;;;;;;53.00;44.75;;;;;27.76;42.29;100799.44;5100408;27;45351;-52
2021/06/16 08:41:48;;;;;;;;;14.25;13.00;;;;;27.80;42.31;100800.88;5100379;27;45390;-50
2021/06/16 08:44:14;;;;;;;;;16.50;15.75;;;;;27.84;41.80;100799.63;5082062;27;45775;-52
2021/06/16 08:46:40;;;;;;;;;11.25;11.25;;;;;27.85;41.68;100797.78;5100627;27;45321;-52
2021/06/16 08:49:07;;;;;;;;;12.25;11.25;;;;;27.89;41.75;100796.53;5100279;27;45467;-51
2021/06/16 08:51:33;;;;;;;;;12.50;11.50;;;;;27.94;41.82;100802.38;5111021;27;46900;-51
2021/06/16 08:53:59;;;;;;;;;13.25;11.00;;;;;27.99;41.92;100797.44;5120640;27;45389;-53
2021/06/16 08:56:25;;;;;;;;;10.75;10.75;;;;;28.08;41.33;100793.09;5121137;27;45303;-51
2021/06/16 08:58:50;;;;;;;;;58.75;48.50;;;;;28.15;41.12;100788.00;5102339;27;45474;-51
2021/06/16 09:01:16;;;;;;;;;12.25;11.00;;;;;28.26;40.97;100797.88;5120912;27;46328;-49
2021/06/16 09:03:42;;;;;;;;;11.75;10.00;;;;;28.35;40.93;100797.91;5120733;27;45359;-51
2021/06/16 09:06:16;;;;;;;;;11.50;10.50;;;;;28.42;41.10;100794.66;5121032;27;45254;-51
2021/06/16 09:08:52;;;;;;;;;11.75;11.75;;;;;28.45;40.87;100789.84;5120881;27;45295;-52
2021/06/16 09:11:23;;;;;;;;;12.50;12.50;;;;;28.52;40.30;100782.88;5096091;27;45999;-52
2021/06/16 09:13:48;;;;;;;;;11.00;11.00;;;;;28.59;40.16;100782.31;5103473;27;45468;-52
2021/06/16 09:16:29;;;;;;;;;13.75;11.50;;;;;28.68;39.75;100786.94;5103872;27;45323;-53
2021/06/16 09:18:55;;;;;;;;;12.50;11.50;;;;;28.74;40.21;100775.56;5103842;27;45178;-52
2021/06/16 09:21:37;;;;;;;;;10.50;10.50;;;;;28.81;39.45;100776.72;5103351;27;45367;-52
2021/06/16 09:24:03;;;;;;;;;12.00;11.50;;;;;28.87;39.21;100767.19;5103362;27;45314;-51
2021/06/16 09:26:31;;;;;;;;;12.50;12.50;;;;;28.98;38.79;100774.31;5085205;27;45308;-51
2021/06/16 09:28:57;;;;;;;;;13.75;13.75;;;;;29.06;38.90;100776.34;5103438;27;45227;-51
2021/06/16 09:31:23;;;;;;;;;12.00;10.50;;;;;29.15;38.87;100761.94;5103332;27;46298;-52
2021/06/16 09:33:51;;;;;;;;;11.00;11.00;;;;;29.29;38.69;100761.53;5103281;27;45285;-52
2021/06/16 09:36:21;;;;;;;;;11.00;10.00;;;;;29.35;38.48;100750.13;5103451;27;45341;-53
2021/06/16 09:38:49;;;;;;;;;11.75;11.75;;;;;29.43;38.36;100749.41;5103192;27;45416;-52
2021/06/16 09:41:18;;;;;;;;;9.50;7.75;;;;;29.45;38.05;100747.41;5103296;27;45365;-52
2021/06/16 09:43:45;;;;;;;;;10.00;9.25;;;;;29.51;37.40;100756.81;5101869;27;45465;-51
2021/06/16 09:46:12;;;;;;;;;10.00;9.75;;;;;29.54;38.02;100756.53;5103312;27;45287;-53
2021/06/16 09:48:47;;;;;;;;;13.00;12.25;;;;;29.61;38.07;100749.53;5101898;27;45391;-50
2021/06/16 09:51:25;;;;;;;;;11.00;11.00;;;;;29.73;37.94;100742.06;5111182;27;45306;-53
2021/06/16 09:54:15;;;;;;;;;14.50;12.00;;;;;29.83;37.72;100742.06;5123210;27;45369;-52
2021/06/16 09:56:44;;;;;;;;;9.00;9.00;;;;;29.97;37.09;100752.44;5123765;27;45339;-51
2021/06/16 09:59:11;;;;;;;;;13.00;10.50;;;;;30.08;37.43;100743.25;5105303;27;45559;-52
2021/06/16 10:01:45;;;;;;;;;10.50;10.50;;;;;30.20;37.26;100754.78;5123534;27;45437;-51
2021/06/16 10:04:29;;;;;;;;;9.50;9.50;;;;;30.28;36.88;100760.28;5105236;27;46055;-50
2021/06/16 10:07:09;;;;;;;;;12.00;11.00;;;;;30.39;36.49;100753.81;5107938;27;45522;-54
2021/06/16 10:09:35;;;;;;;;;12.25;11.75;;;;;30.44;36.48;100745.22;5123201;27;45348;-53
2021/06/16 10:12:01;;;;;;;;;11.00;11.00;;;;;30.54;36.10;100748.78;5103701;27;45319;-53
2021/06/16 10:14:26;;;;;;;;;10.50;10.50;;;;;30.66;35.42;100746.69;5102723;27;45216;-53
2021/06/16 10:16:54;;;;;;;;;10.25;10.00;;;;;30.76;35.77;100752.88;5103032;27;45374;-53
2021/06/16 10:19:20;;;;;;;;;12.50;12.00;;;;;31.01;35.57;100757.72;5102681;27;45332;-51
2021/06/16 10:21:46;;;;;;;;;11.25;11.25;;;;;31.28;34.67;100756.78;5100699;27;46069;-54
2021/06/16 10:24:11;;;;;;;;;15.50;14.75;;;;;31.37;34.35;100753.16;5120843;27;45505;-54
2021/06/16 10:26:37;;;;;;;;;11.00;11.00;;;;;31.39;34.05;100755.69;5103622;27;45425;-51
2021/06/16 10:29:10;;;;;;;;;11.50;11.00;;;;;31.44;33.80;100740.63;5110724;27;45346;-50
2021/06/16 10:31:41;;;;;;;;;10.25;10.25;;;;;31.53;34.00;100744.25;5112333;27;46393;-51
2021/06/16 10:34:08;;;;;;;;;12.50;10.75;;;;;31.78;33.34;100736.28;5111569;27;45309;-53
2021/06/16 10:36:35;;;;;;;;;13.50;12.50;;;;;32.12;33.61;100740.03;5110644;27;45330;-54
2021/06/16 10:39:01;;;;;;;;;13.00;11.00;;;;;32.99;32.68;100734.34;5093762;27;45426;-53
2021/06/16 10:41:41;;;;;;;;;10.25;9.50;;;;;36.16;31.22;100727.63;5112047;27;45431;-51
2021/06/16 10:44:28;;;;;;;;;13.75;12.50;;;;;40.58;27.81;100730.38;5110507;27;45411;-49
2021/06/16 10:47:02;;;;;;;;;11.00;11.00;;;;;44.16;24.14;100727.94;5110363;27;45539;-52
2021/06/16 10:49:43;;;;;;;;;11.25;11.25;;;;;47.33;19.82;100740.28;5112158;27;45496;-53
2021/06/16 10:52:11;;;;;;;;;9.00;9.00;;;;;49.06;18.43;100733.88;5117855;27;46199;-51
2021/06/16 10:54:37;;;;;;;;;8.00;8.00;;;;;49.60;17.19;100743.53;5120639;27;45627;-52
2021/06/16 10:57:03;;;;;;;;;10.50;8.00;;;;;51.47;14.92;100738.38;5120502;27;45393;-51
2021/06/16 10:59:44;;;;;;;;;7.50;7.50;;;;;54.47;13.76;100733.94;5121502;27;45461;-52
2021/06/16 11:02:09;;;;;;;;;8.50;8.50;;;;;57.03;11.75;100720.94;5122246;27;46107;-52
2021/06/16 11:04:37;;;;;;;;;8.00;8.00;;;;;58.80;10.25;100730.63;5122867;27;45161;-51
2021/06/16 11:07:03;;;;;;;;;11.25;10.75;;;;;60.74;8.75;100725.66;5114458;27;45248;-50
2021/06/16 11:09:50;;;;;;;;;8.00;8.00;;;;;62.62;8.49;100727.03;5113007;27;45556;-53
2021/06/16 11:12:16;;;;;;;;;8.25;8.25;;;;;64.26;6.01;100714.78;5085384;27;47414;-51